sensor_id;sensor_type;location;lat;lon;timestamp;P1;durP1;ratioP1;P2;durP2;ratioP2
66081;SDS011;52866;51.380;0.098;2022-09-17T00:01:18;4.80;;;1.10;;
66081;SDS011;52866;51.380;0.098;2022-09-17T00:03:49;5.88;;;1.13;;
66081;SDS011;52866;51.380;0.098;2022-09-17T00:06:18;3.88;;;0.93;;
66081;SDS011;52866;51.380;0.098;2022-09-17T00:08:45;5.65;;;1.08;;
66081;SDS011;52866;51.380;0.098;2022-09-17T00:11:17;5.03;;;1.00;;
66081;SDS011;52866;51.380;0.098;2022-09-17T00:13:47;4.57;;;1.20;;
66081;SDS011;52866;51.380;0.098;2022-09-17T00:16:20;4.45;;;0.93;;
66081;SDS011;52866;51.380;0.098;2022-09-17T00:18:47;4.43;;;1.00;;
66081;SDS011;52866;51.380;0.098;2022-09-17T00:21:17;5.55;;;1.00;;
66081;SDS011;52866;51.380;0.098;2022-09-17T00:23:44;6.93;;;1.20;;
66081;SDS011;52866;51.380;0.098;2022-09-17T00:26:12;4.30;;;1.07;;
66081;SDS011;52866;51.380;0.098;2022-09-17T00:28:39;5.10;;;1.20;;
66081;SDS011;52866;51.380;0.098;2022-09-17T00:31:08;5.53;;;1.10;;
66081;SDS011;52866;51.380;0.098;2022-09-17T00:33:35;4.45;;;1.10;;
66081;SDS011;52866;51.380;0.098;2022-09-17T00:36:03;5.15;;;1.05;;
66081;SDS011;52866;51.380;0.098;2022-09-17T00:38:30;6.53;;;1.20;;
66081;SDS011;52866;51.380;0.098;2022-09-17T00:40:57;3.22;;;0.85;;
66081;SDS011;52866;51.380;0.098;2022-09-17T00:43:35;3.88;;;0.93;;
66081;SDS011;52866;51.380;0.098;2022-09-17T00:46:04;4.65;;;0.90;;
66081;SDS011;52866;51.380;0.098;2022-09-17T00:48:32;4.70;;;1.00;;
66081;SDS011;52866;51.380;0.098;2022-09-17T00:50:59;5.87;;;1.30;;
66081;SDS011;52866;51.380;0.098;2022-09-17T00:53:27;4.80;;;0.90;;
66081;SDS011;52866;51.380;0.098;2022-09-17T00:55:56;6.90;;;1.15;;
66081;SDS011;52866;51.380;0.098;2022-09-17T00:58:24;4.70;;;0.95;;
66081;SDS011;52866;51.380;0.098;2022-09-17T01:00:52;4.47;;;0.98;;
66081;SDS011;52866;51.380;0.098;2022-09-17T01:03:19;5.17;;;1.20;;
66081;SDS011;52866;51.380;0.098;2022-09-17T01:06:00;4.30;;;1.00;;
66081;SDS011;52866;51.380;0.098;2022-09-17T01:08:34;4.95;;;0.98;;
66081;SDS011;52866;51.380;0.098;2022-09-17T01:13:53;4.80;;;1.10;;
66081;SDS011;52866;51.380;0.098;2022-09-17T01:17:03;5.00;;;0.90;;
66081;SDS011;52866;51.380;0.098;2022-09-17T01:22:11;5.60;;;1.13;;
66081;SDS011;52866;51.380;0.098;2022-09-17T01:32:18;4.13;;;0.82;;
66081;SDS011;52866;51.380;0.098;2022-09-17T01:35:01;4.93;;;1.00;;
66081;SDS011;52866;51.380;0.098;2022-09-17T01:37:31;4.43;;;1.00;;
66081;SDS011;52866;51.380;0.098;2022-09-17T01:40:11;5.30;;;1.38;;
66081;SDS011;52866;51.380;0.098;2022-09-17T01:45:21;3.15;;;0.95;;
66081;SDS011;52866;51.380;0.098;2022-09-17T01:47:50;3.90;;;0.80;;
66081;SDS011;52866;51.380;0.098;2022-09-17T01:50:26;4.45;;;1.00;;
66081;SDS011;52866;51.380;0.098;2022-09-17T01:52:54;6.60;;;0.88;;
66081;SDS011;52866;51.380;0.098;2022-09-17T01:55:23;4.23;;;0.93;;
66081;SDS011;52866;51.380;0.098;2022-09-17T01:57:53;4.72;;;0.85;;
66081;SDS011;52866;51.380;0.098;2022-09-17T02:00:22;5.90;;;1.10;;
66081;SDS011;52866;51.380;0.098;2022-09-17T02:02:51;4.53;;;0.80;;
66081;SDS011;52866;51.380;0.098;2022-09-17T02:05:36;3.80;;;0.80;;
66081;SDS011;52866;51.380;0.098;2022-09-17T02:08:08;4.20;;;0.90;;
66081;SDS011;52866;51.380;0.098;2022-09-17T02:10:37;3.53;;;0.80;;
66081;SDS011;52866;51.380;0.098;2022-09-17T02:13:06;3.90;;;0.80;;
66081;SDS011;52866;51.380;0.098;2022-09-17T02:15:39;3.50;;;0.93;;
66081;SDS011;52866;51.380;0.098;2022-09-17T02:18:20;4.57;;;0.90;;
66081;SDS011;52866;51.380;0.098;2022-09-17T02:20:51;4.00;;;0.90;;
66081;SDS011;52866;51.380;0.098;2022-09-17T02:23:22;3.95;;;0.98;;
66081;SDS011;52866;51.380;0.098;2022-09-17T02:25:58;4.63;;;0.98;;
66081;SDS011;52866;51.380;0.098;2022-09-17T02:31:04;4.55;;;0.85;;
66081;SDS011;52866;51.380;0.098;2022-09-17T02:33:31;4.67;;;1.00;;
66081;SDS011;52866;51.380;0.098;2022-09-17T02:35:59;3.17;;;0.80;;
66081;SDS011;52866;51.380;0.098;2022-09-17T02:38:28;4.03;;;1.00;;
66081;SDS011;52866;51.380;0.098;2022-09-17T02:41:07;5.70;;;1.00;;
66081;SDS011;52866;51.380;0.098;2022-09-17T02:43:40;3.97;;;0.90;;
66081;SDS011;52866;51.380;0.098;2022-09-17T02:46:50;3.77;;;0.90;;
66081;SDS011;52866;51.380;0.098;2022-09-17T02:59:23;5.73;;;1.03;;
66081;SDS011;52866;51.380;0.098;2022-09-17T03:02:02;4.25;;;0.93;;
66081;SDS011;52866;51.380;0.098;2022-09-17T03:04:33;5.32;;;0.98;;
66081;SDS011;52866;51.380;0.098;2022-09-17T03:07:04;4.90;;;0.90;;
66081;SDS011;52866;51.380;0.098;2022-09-17T03:09:31;4.93;;;1.15;;
66081;SDS011;52866;51.380;0.098;2022-09-17T03:11:59;5.13;;;1.17;;
66081;SDS011;52866;51.380;0.098;2022-09-17T03:14:27;4.60;;;0.80;;
66081;SDS011;52866;51.380;0.098;2022-09-17T03:16:55;4.22;;;1.00;;
66081;SDS011;52866;51.380;0.098;2022-09-17T03:19:22;5.20;;;1.10;;
66081;SDS011;52866;51.380;0.098;2022-09-17T03:21:49;4.10;;;1.00;;
66081;SDS011;52866;51.380;0.098;2022-09-17T03:24:16;5.13;;;1.20;;
66081;SDS011;52866;51.380;0.098;2022-09-17T03:26:43;5.13;;;0.80;;
66081;SDS011;52866;51.380;0.098;2022-09-17T03:29:10;4.78;;;0.90;;
66081;SDS011;52866;51.380;0.098;2022-09-17T03:31:37;3.00;;;0.80;;
66081;SDS011;52866;51.380;0.098;2022-09-17T03:34:04;4.45;;;0.93;;
66081;SDS011;52866;51.380;0.098;2022-09-17T03:36:31;5.00;;;0.90;;
66081;SDS011;52866;51.380;0.098;2022-09-17T03:38:58;3.63;;;0.90;;
66081;SDS011;52866;51.380;0.098;2022-09-17T03:41:25;4.57;;;1.00;;
66081;SDS011;52866;51.380;0.098;2022-09-17T03:43:52;3.83;;;0.98;;
66081;SDS011;52866;51.380;0.098;2022-09-17T03:46:20;3.63;;;0.93;;
66081;SDS011;52866;51.380;0.098;2022-09-17T03:48:47;4.70;;;1.40;;
66081;SDS011;52866;51.380;0.098;2022-09-17T03:51:14;4.55;;;1.05;;
66081;SDS011;52866;51.380;0.098;2022-09-17T03:53:41;5.35;;;1.10;;
66081;SDS011;52866;51.380;0.098;2022-09-17T03:56:08;4.65;;;1.10;;
66081;SDS011;52866;51.380;0.098;2022-09-17T03:58:35;6.22;;;1.00;;
66081;SDS011;52866;51.380;0.098;2022-09-17T04:01:02;5.10;;;0.90;;
66081;SDS011;52866;51.380;0.098;2022-09-17T04:03:30;4.40;;;1.00;;
66081;SDS011;52866;51.380;0.098;2022-09-17T04:05:58;4.85;;;1.10;;
66081;SDS011;52866;51.380;0.098;2022-09-17T04:08:25;4.53;;;1.15;;
66081;SDS011;52866;51.380;0.098;2022-09-17T04:10:52;3.35;;;1.00;;
66081;SDS011;52866;51.380;0.098;2022-09-17T04:13:20;4.70;;;1.10;;
66081;SDS011;52866;51.380;0.098;2022-09-17T04:15:47;4.20;;;1.10;;
66081;SDS011;52866;51.380;0.098;2022-09-17T04:18:14;3.88;;;0.90;;
66081;SDS011;52866;51.380;0.098;2022-09-17T04:20:41;3.55;;;0.90;;
66081;SDS011;52866;51.380;0.098;2022-09-17T04:23:10;5.00;;;1.00;;
66081;SDS011;52866;51.380;0.098;2022-09-17T04:25:37;3.70;;;0.90;;
66081;SDS011;52866;51.380;0.098;2022-09-17T04:28:05;3.53;;;0.98;;
66081;SDS011;52866;51.380;0.098;2022-09-17T04:30:32;4.47;;;0.85;;
66081;SDS011;52866;51.380;0.098;2022-09-17T04:32:59;5.15;;;1.10;;
66081;SDS011;52866;51.380;0.098;2022-09-17T04:35:26;6.28;;;1.10;;
66081;SDS011;52866;51.380;0.098;2022-09-17T04:37:53;5.57;;;1.00;;
66081;SDS011;52866;51.380;0.098;2022-09-17T04:40:21;3.90;;;0.90;;
66081;SDS011;52866;51.380;0.098;2022-09-17T04:42:51;3.92;;;1.15;;
66081;SDS011;52866;51.380;0.098;2022-09-17T04:45:18;4.78;;;1.02;;
66081;SDS011;52866;51.380;0.098;2022-09-17T04:47:45;4.38;;;0.98;;
66081;SDS011;52866;51.380;0.098;2022-09-17T04:50:12;4.77;;;1.20;;
66081;SDS011;52866;51.380;0.098;2022-09-17T04:52:42;5.10;;;1.10;;
66081;SDS011;52866;51.380;0.098;2022-09-17T04:55:10;3.80;;;0.98;;
66081;SDS011;52866;51.380;0.098;2022-09-17T04:57:37;3.75;;;0.93;;
66081;SDS011;52866;51.380;0.098;2022-09-17T05:00:05;4.45;;;1.00;;
66081;SDS011;52866;51.380;0.098;2022-09-17T05:02:36;4.10;;;1.00;;
66081;SDS011;52866;51.380;0.098;2022-09-17T05:05:03;4.60;;;1.00;;
66081;SDS011;52866;51.380;0.098;2022-09-17T05:07:30;4.28;;;1.10;;
66081;SDS011;52866;51.380;0.098;2022-09-17T05:09:57;4.47;;;1.00;;
66081;SDS011;52866;51.380;0.098;2022-09-17T05:12:24;4.30;;;1.00;;
66081;SDS011;52866;51.380;0.098;2022-09-17T05:14:51;4.40;;;1.20;;
66081;SDS011;52866;51.380;0.098;2022-09-17T05:17:18;4.72;;;1.27;;
66081;SDS011;52866;51.380;0.098;2022-09-17T05:19:45;4.22;;;1.27;;
66081;SDS011;52866;51.380;0.098;2022-09-17T05:22:12;4.00;;;1.05;;
66081;SDS011;52866;51.380;0.098;2022-09-17T05:24:39;4.25;;;1.27;;
66081;SDS011;52866;51.380;0.098;2022-09-17T05:27:07;4.97;;;1.30;;
66081;SDS011;52866;51.380;0.098;2022-09-17T05:29:34;5.82;;;1.20;;
66081;SDS011;52866;51.380;0.098;2022-09-17T05:32:02;3.80;;;1.00;;
66081;SDS011;52866;51.380;0.098;2022-09-17T05:34:29;4.00;;;1.05;;
66081;SDS011;52866;51.380;0.098;2022-09-17T05:36:56;3.97;;;1.20;;
66081;SDS011;52866;51.380;0.098;2022-09-17T05:39:23;4.50;;;1.03;;
66081;SDS011;52866;51.380;0.098;2022-09-17T05:41:54;4.60;;;1.50;;
66081;SDS011;52866;51.380;0.098;2022-09-17T05:44:21;5.55;;;1.48;;
66081;SDS011;52866;51.380;0.098;2022-09-17T05:46:51;4.90;;;1.30;;
66081;SDS011;52866;51.380;0.098;2022-09-17T05:49:18;4.15;;;1.05;;
66081;SDS011;52866;51.380;0.098;2022-09-17T05:51:45;5.00;;;1.13;;
66081;SDS011;52866;51.380;0.098;2022-09-17T05:54:12;3.45;;;0.90;;
66081;SDS011;52866;51.380;0.098;2022-09-17T05:56:39;5.15;;;1.30;;
66081;SDS011;52866;51.380;0.098;2022-09-17T05:59:06;3.97;;;1.08;;
66081;SDS011;52866;51.380;0.098;2022-09-17T06:01:33;5.07;;;1.20;;
66081;SDS011;52866;51.380;0.098;2022-09-17T06:04:00;5.67;;;1.60;;
66081;SDS011;52866;51.380;0.098;2022-09-17T06:06:30;4.70;;;1.17;;
66081;SDS011;52866;51.380;0.098;2022-09-17T06:09:00;6.88;;;1.33;;
66081;SDS011;52866;51.380;0.098;2022-09-17T06:11:27;4.60;;;1.30;;
66081;SDS011;52866;51.380;0.098;2022-09-17T06:13:54;5.47;;;1.45;;
66081;SDS011;52866;51.380;0.098;2022-09-17T06:16:21;4.80;;;1.20;;
66081;SDS011;52866;51.380;0.098;2022-09-17T06:18:49;9.85;;;1.52;;
66081;SDS011;52866;51.380;0.098;2022-09-17T06:21:18;7.75;;;1.30;;
66081;SDS011;52866;51.380;0.098;2022-09-17T06:23:48;5.00;;;1.08;;
66081;SDS011;52866;51.380;0.098;2022-09-17T06:26:15;7.32;;;1.65;;
66081;SDS011;52866;51.380;0.098;2022-09-17T06:28:42;7.23;;;1.47;;
66081;SDS011;52866;51.380;0.098;2022-09-17T06:31:10;7.82;;;1.40;;
66081;SDS011;52866;51.380;0.098;2022-09-17T06:33:38;6.88;;;1.10;;
66081;SDS011;52866;51.380;0.098;2022-09-17T06:36:06;5.30;;;0.95;;
66081;SDS011;52866;51.380;0.098;2022-09-17T06:38:39;9.95;;;1.27;;
66081;SDS011;52866;51.380;0.098;2022-09-17T06:41:06;5.70;;;1.00;;
66081;SDS011;52866;51.380;0.098;2022-09-17T06:43:33;5.35;;;1.48;;
66081;SDS011;52866;51.380;0.098;2022-09-17T06:46:01;6.13;;;0.80;;
66081;SDS011;52866;51.380;0.098;2022-09-17T06:48:28;4.93;;;1.10;;
66081;SDS011;52866;51.380;0.098;2022-09-17T06:50:59;6.30;;;1.45;;
66081;SDS011;52866;51.380;0.098;2022-09-17T06:53:27;6.17;;;1.20;;
66081;SDS011;52866;51.380;0.098;2022-09-17T06:55:56;6.70;;;1.25;;
66081;SDS011;52866;51.380;0.098;2022-09-17T06:58:27;6.28;;;1.20;;
66081;SDS011;52866;51.380;0.098;2022-09-17T07:00:58;4.90;;;1.08;;
66081;SDS011;52866;51.380;0.098;2022-09-17T07:03:26;9.88;;;1.23;;
66081;SDS011;52866;51.380;0.098;2022-09-17T07:05:54;6.33;;;1.57;;
66081;SDS011;52866;51.380;0.098;2022-09-17T07:08:22;6.80;;;1.40;;
66081;SDS011;52866;51.380;0.098;2022-09-17T07:10:49;10.15;;;1.40;;
66081;SDS011;52866;51.380;0.098;2022-09-17T07:13:16;5.20;;;1.50;;
66081;SDS011;52866;51.380;0.098;2022-09-17T07:15:50;5.03;;;1.40;;
66081;SDS011;52866;51.380;0.098;2022-09-17T07:18:17;7.60;;;1.10;;
66081;SDS011;52866;51.380;0.098;2022-09-17T07:20:50;6.43;;;1.33;;
66081;SDS011;52866;51.380;0.098;2022-09-17T07:23:18;8.38;;;1.10;;
66081;SDS011;52866;51.380;0.098;2022-09-17T07:25:49;12.93;;;1.48;;
66081;SDS011;52866;51.380;0.098;2022-09-17T07:28:16;9.13;;;1.60;;
66081;SDS011;52866;51.380;0.098;2022-09-17T07:30:43;7.83;;;1.60;;
66081;SDS011;52866;51.380;0.098;2022-09-17T07:33:10;8.27;;;1.65;;
66081;SDS011;52866;51.380;0.098;2022-09-17T07:35:37;8.77;;;1.92;;
66081;SDS011;52866;51.380;0.098;2022-09-17T07:38:04;17.00;;;2.67;;
66081;SDS011;52866;51.380;0.098;2022-09-17T07:40:31;7.18;;;2.15;;
66081;SDS011;52866;51.380;0.098;2022-09-17T07:42:59;15.80;;;2.57;;
66081;SDS011;52866;51.380;0.098;2022-09-17T07:45:25;17.80;;;2.60;;
66081;SDS011;52866;51.380;0.098;2022-09-17T07:47:52;13.10;;;2.30;;
66081;SDS011;52866;51.380;0.098;2022-09-17T07:50:20;15.25;;;2.65;;
66081;SDS011;52866;51.380;0.098;2022-09-17T07:52:47;10.50;;;2.65;;
66081;SDS011;52866;51.380;0.098;2022-09-17T07:55:14;10.60;;;2.60;;
66081;SDS011;52866;51.380;0.098;2022-09-17T07:57:41;10.25;;;2.13;;
66081;SDS011;52866;51.380;0.098;2022-09-17T08:00:08;9.48;;;2.45;;
66081;SDS011;52866;51.380;0.098;2022-09-17T08:02:38;9.80;;;2.28;;
66081;SDS011;52866;51.380;0.098;2022-09-17T08:05:06;12.13;;;2.67;;
66081;SDS011;52866;51.380;0.098;2022-09-17T08:07:33;13.80;;;2.87;;
66081;SDS011;52866;51.380;0.098;2022-09-17T08:10:00;19.88;;;3.10;;
66081;SDS011;52866;51.380;0.098;2022-09-17T08:12:27;14.48;;;2.47;;
66081;SDS011;52866;51.380;0.098;2022-09-17T08:14:55;13.65;;;2.50;;
66081;SDS011;52866;51.380;0.098;2022-09-17T08:17:21;11.95;;;1.95;;
66081;SDS011;52866;51.380;0.098;2022-09-17T08:19:48;20.07;;;3.00;;
66081;SDS011;52866;51.380;0.098;2022-09-17T08:22:15;11.68;;;1.95;;
66081;SDS011;52866;51.380;0.098;2022-09-17T08:24:42;11.32;;;2.08;;
66081;SDS011;52866;51.380;0.098;2022-09-17T08:27:10;9.98;;;2.03;;
66081;SDS011;52866;51.380;0.098;2022-09-17T08:29:37;10.02;;;2.05;;
66081;SDS011;52866;51.380;0.098;2022-09-17T08:32:04;13.07;;;1.80;;
66081;SDS011;52866;51.380;0.098;2022-09-17T08:34:31;12.40;;;1.95;;
66081;SDS011;52866;51.380;0.098;2022-09-17T08:36:58;11.93;;;2.03;;
66081;SDS011;52866;51.380;0.098;2022-09-17T08:39:25;12.65;;;2.05;;
66081;SDS011;52866;51.380;0.098;2022-09-17T08:42:04;8.70;;;1.90;;
66081;SDS011;52866;51.380;0.098;2022-09-17T08:47:03;12.63;;;1.98;;
66081;SDS011;52866;51.380;0.098;2022-09-17T08:49:39;6.65;;;1.70;;
66081;SDS011;52866;51.380;0.098;2022-09-17T08:57:14;10.70;;;1.90;;
66081;SDS011;52866;51.380;0.098;2022-09-17T09:00:08;7.75;;;1.58;;
66081;SDS011;52866;51.380;0.098;2022-09-17T09:02:35;9.30;;;1.95;;
66081;SDS011;52866;51.380;0.098;2022-09-17T09:05:13;6.72;;;1.67;;
66081;SDS011;52866;51.380;0.098;2022-09-17T09:07:47;6.07;;;1.42;;
66081;SDS011;52866;51.380;0.098;2022-09-17T09:10:24;7.17;;;1.70;;
66081;SDS011;52866;51.380;0.098;2022-09-17T09:12:53;7.65;;;1.35;;
66081;SDS011;52866;51.380;0.098;2022-09-17T09:15:30;7.82;;;1.58;;
66081;SDS011;52866;51.380;0.098;2022-09-17T09:18:00;6.85;;;1.20;;
66081;SDS011;52866;51.380;0.098;2022-09-17T09:20:38;6.78;;;1.33;;
66081;SDS011;52866;51.380;0.098;2022-09-17T09:23:29;6.13;;;1.30;;
66081;SDS011;52866;51.380;0.098;2022-09-17T09:26:16;4.55;;;1.20;;
66081;SDS011;52866;51.380;0.098;2022-09-17T09:34:09;6.57;;;1.17;;
66081;SDS011;52866;51.380;0.098;2022-09-17T09:36:37;6.33;;;1.43;;
66081;SDS011;52866;51.380;0.098;2022-09-17T09:39:13;5.10;;;1.20;;
66081;SDS011;52866;51.380;0.098;2022-09-17T09:44:12;10.23;;;1.30;;
66081;SDS011;52866;51.380;0.098;2022-09-17T09:49:38;6.80;;;1.07;;
66081;SDS011;52866;51.380;0.098;2022-09-17T09:52:17;7.43;;;1.25;;
66081;SDS011;52866;51.380;0.098;2022-09-17T09:54:53;9.55;;;1.25;;
66081;SDS011;52866;51.380;0.098;2022-09-17T09:57:38;6.03;;;1.20;;
66081;SDS011;52866;51.380;0.098;2022-09-17T10:00:27;7.53;;;1.50;;
66081;SDS011;52866;51.380;0.098;2022-09-17T10:08:28;5.88;;;1.17;;
66081;SDS011;52866;51.380;0.098;2022-09-17T10:13:30;7.13;;;1.10;;
66081;SDS011;52866;51.380;0.098;2022-09-17T10:16:17;4.70;;;0.97;;
66081;SDS011;52866;51.380;0.098;2022-09-17T10:18:45;6.10;;;1.00;;
66081;SDS011;52866;51.380;0.098;2022-09-17T10:21:29;6.07;;;1.00;;
66081;SDS011;52866;51.380;0.098;2022-09-17T10:23:57;4.18;;;1.10;;
66081;SDS011;52866;51.380;0.098;2022-09-17T10:26:25;5.15;;;1.10;;
66081;SDS011;52866;51.380;0.098;2022-09-17T10:29:00;4.47;;;1.20;;
66081;SDS011;52866;51.380;0.098;2022-09-17T10:31:44;6.63;;;1.10;;
66081;SDS011;52866;51.380;0.098;2022-09-17T10:34:22;8.82;;;1.00;;
66081;SDS011;52866;51.380;0.098;2022-09-17T10:36:50;8.27;;;1.60;;
66081;SDS011;52866;51.380;0.098;2022-09-17T10:44:24;4.38;;;1.10;;
66081;SDS011;52866;51.380;0.098;2022-09-17T10:46:51;5.50;;;1.27;;
66081;SDS011;52866;51.380;0.098;2022-09-17T10:51:49;6.85;;;1.23;;
66081;SDS011;52866;51.380;0.098;2022-09-17T10:56:53;4.40;;;0.98;;
66081;SDS011;52866;51.380;0.098;2022-09-17T10:59:36;4.45;;;0.88;;
66081;SDS011;52866;51.380;0.098;2022-09-17T11:04:41;4.07;;;1.00;;
66081;SDS011;52866;51.380;0.098;2022-09-17T11:09:52;6.47;;;0.70;;
66081;SDS011;52866;51.380;0.098;2022-09-17T11:16:11;4.15;;;0.70;;
66081;SDS011;52866;51.380;0.098;2022-09-17T11:18:13;5.00;;;0.73;;
66081;SDS011;52866;51.380;0.098;2022-09-17T11:26:04;4.00;;;0.90;;
66081;SDS011;52866;51.380;0.098;2022-09-17T11:33:34;4.77;;;1.00;;
66081;SDS011;52866;51.380;0.098;2022-09-17T11:36:16;3.90;;;0.90;;
66081;SDS011;52866;51.380;0.098;2022-09-17T11:38:46;3.30;;;0.80;;
66081;SDS011;52866;51.380;0.098;2022-09-17T11:43:44;3.92;;;0.70;;
66081;SDS011;52866;51.380;0.098;2022-09-17T11:46:20;4.83;;;0.90;;
66081;SDS011;52866;51.380;0.098;2022-09-17T11:48:54;7.03;;;1.00;;
66081;SDS011;52866;51.380;0.098;2022-09-17T11:51:29;4.35;;;0.88;;
66081;SDS011;52866;51.380;0.098;2022-09-17T11:54:07;4.57;;;0.88;;
66081;SDS011;52866;51.380;0.098;2022-09-17T11:56:45;4.15;;;0.90;;
66081;SDS011;52866;51.380;0.098;2022-09-17T11:59:17;3.70;;;0.80;;
66081;SDS011;52866;51.380;0.098;2022-09-17T12:01:55;3.40;;;0.80;;
66081;SDS011;52866;51.380;0.098;2022-09-17T12:07:09;4.43;;;0.88;;
66081;SDS011;52866;51.380;0.098;2022-09-17T12:09:38;4.22;;;0.82;;
66081;SDS011;52866;51.380;0.098;2022-09-17T12:12:28;3.33;;;0.80;;
66081;SDS011;52866;51.380;0.098;2022-09-17T12:15:17;7.38;;;0.90;;
66081;SDS011;52866;51.380;0.098;2022-09-17T12:17:48;4.18;;;1.00;;
66081;SDS011;52866;51.380;0.098;2022-09-17T12:22:49;4.20;;;0.90;;
66081;SDS011;52866;51.380;0.098;2022-09-17T12:25:17;4.53;;;1.00;;
66081;SDS011;52866;51.380;0.098;2022-09-17T12:30:19;3.75;;;1.00;;
66081;SDS011;52866;51.380;0.098;2022-09-17T12:46:49;4.20;;;1.10;;
66081;SDS011;52866;51.380;0.098;2022-09-17T12:51:53;4.87;;;1.00;;
66081;SDS011;52866;51.380;0.098;2022-09-17T12:54:45;3.70;;;0.90;;
66081;SDS011;52866;51.380;0.098;2022-09-17T12:59:42;4.80;;;1.10;;
66081;SDS011;52866;51.380;0.098;2022-09-17T13:15:36;4.45;;;0.95;;
66081;SDS011;52866;51.380;0.098;2022-09-17T13:20:59;3.13;;;0.70;;
66081;SDS011;52866;51.380;0.098;2022-09-17T13:23:37;4.03;;;0.65;;
66081;SDS011;52866;51.380;0.098;2022-09-17T13:26:05;5.03;;;0.63;;
66081;SDS011;52866;51.380;0.098;2022-09-17T13:28:40;5.15;;;0.80;;
66081;SDS011;52866;51.380;0.098;2022-09-17T13:31:18;6.03;;;0.90;;
66081;SDS011;52866;51.380;0.098;2022-09-17T13:39:00;4.32;;;0.70;;
66081;SDS011;52866;51.380;0.098;2022-09-17T13:41:28;5.35;;;0.88;;
66081;SDS011;52866;51.380;0.098;2022-09-17T13:43:57;5.93;;;1.10;;
66081;SDS011;52866;51.380;0.098;2022-09-17T13:46:24;6.75;;;1.10;;
66081;SDS011;52866;51.380;0.098;2022-09-17T13:48:55;6.03;;;1.02;;
66081;SDS011;52866;51.380;0.098;2022-09-17T13:54:06;4.15;;;1.00;;
66081;SDS011;52866;51.380;0.098;2022-09-17T13:56:35;5.97;;;1.00;;
66081;SDS011;52866;51.380;0.098;2022-09-17T13:59:06;4.55;;;0.80;;
66081;SDS011;52866;51.380;0.098;2022-09-17T14:04:33;4.07;;;1.05;;
66081;SDS011;52866;51.380;0.098;2022-09-17T14:07:08;9.35;;;1.10;;
66081;SDS011;52866;51.380;0.098;2022-09-17T14:09:50;4.13;;;1.10;;
66081;SDS011;52866;51.380;0.098;2022-09-17T14:17:55;3.90;;;0.68;;
66081;SDS011;52866;51.380;0.098;2022-09-17T14:20:24;3.75;;;0.70;;
66081;SDS011;52866;51.380;0.098;2022-09-17T14:22:53;4.50;;;0.77;;
66081;SDS011;52866;51.380;0.098;2022-09-17T14:25:21;3.83;;;0.77;;
66081;SDS011;52866;51.380;0.098;2022-09-17T14:30:29;3.53;;;0.93;;
66081;SDS011;52866;51.380;0.098;2022-09-17T14:37:59;3.30;;;0.80;;
66081;SDS011;52866;51.380;0.098;2022-09-17T14:40:28;3.70;;;0.80;;
66081;SDS011;52866;51.380;0.098;2022-09-17T14:42:57;4.97;;;0.90;;
66081;SDS011;52866;51.380;0.098;2022-09-17T14:45:26;3.50;;;0.80;;
66081;SDS011;52866;51.380;0.098;2022-09-17T14:50:39;3.53;;;0.90;;
66081;SDS011;52866;51.380;0.098;2022-09-17T14:53:07;3.17;;;0.85;;
66081;SDS011;52866;51.380;0.098;2022-09-17T14:55:34;5.07;;;0.80;;
66081;SDS011;52866;51.380;0.098;2022-09-17T14:58:18;5.70;;;0.98;;
66081;SDS011;52866;51.380;0.098;2022-09-17T15:00:51;4.30;;;1.17;;
66081;SDS011;52866;51.380;0.098;2022-09-17T15:03:20;5.53;;;1.00;;
66081;SDS011;52866;51.380;0.098;2022-09-17T15:05:47;5.28;;;0.98;;
66081;SDS011;52866;51.380;0.098;2022-09-17T15:08:17;3.78;;;0.90;;
66081;SDS011;52866;51.380;0.098;2022-09-17T15:13:12;3.80;;;0.90;;
66081;SDS011;52866;51.380;0.098;2022-09-17T15:15:41;4.07;;;0.70;;
66081;SDS011;52866;51.380;0.098;2022-09-17T15:18:16;9.38;;;1.17;;
66081;SDS011;52866;51.380;0.098;2022-09-17T15:20:45;4.07;;;0.98;;
66081;SDS011;52866;51.380;0.098;2022-09-17T15:23:23;22.02;;;1.80;;
66081;SDS011;52866;51.380;0.098;2022-09-17T15:25:51;14.90;;;1.70;;
66081;SDS011;52866;51.380;0.098;2022-09-17T15:28:25;15.68;;;1.75;;
66081;SDS011;52866;51.380;0.098;2022-09-17T15:30:54;18.20;;;1.52;;
66081;SDS011;52866;51.380;0.098;2022-09-17T15:33:21;12.77;;;1.20;;
66081;SDS011;52866;51.380;0.098;2022-09-17T15:35:57;11.68;;;1.73;;
66081;SDS011;52866;51.380;0.098;2022-09-17T15:38:25;18.37;;;1.83;;
66081;SDS011;52866;51.380;0.098;2022-09-17T15:40:53;9.57;;;1.10;;
66081;SDS011;52866;51.380;0.098;2022-09-17T15:45:53;8.88;;;1.08;;
66081;SDS011;52866;51.380;0.098;2022-09-17T15:50:55;8.47;;;1.43;;
66081;SDS011;52866;51.380;0.098;2022-09-17T15:53:23;8.10;;;1.35;;
66081;SDS011;52866;51.380;0.098;2022-09-17T15:56:04;10.77;;;1.05;;
66081;SDS011;52866;51.380;0.098;2022-09-17T15:58:36;6.05;;;1.00;;
66081;SDS011;52866;51.380;0.098;2022-09-17T16:06:48;9.05;;;1.10;;
66081;SDS011;52866;51.380;0.098;2022-09-17T16:08:56;8.80;;;1.40;;
66081;SDS011;52866;51.380;0.098;2022-09-17T16:11:24;9.93;;;1.40;;
66081;SDS011;52866;51.380;0.098;2022-09-17T16:13:53;8.50;;;1.10;;
66081;SDS011;52866;51.380;0.098;2022-09-17T16:16:25;9.70;;;1.47;;
66081;SDS011;52866;51.380;0.098;2022-09-17T16:18:53;8.27;;;1.38;;
66081;SDS011;52866;51.380;0.098;2022-09-17T16:21:20;11.10;;;1.52;;
66081;SDS011;52866;51.380;0.098;2022-09-17T16:23:47;11.93;;;1.17;;
66081;SDS011;52866;51.380;0.098;2022-09-17T16:26:18;8.82;;;1.20;;
66081;SDS011;52866;51.380;0.098;2022-09-17T16:28:45;7.27;;;1.13;;
66081;SDS011;52866;51.380;0.098;2022-09-17T16:31:13;9.25;;;1.30;;
66081;SDS011;52866;51.380;0.098;2022-09-17T16:33:40;10.45;;;1.42;;
66081;SDS011;52866;51.380;0.098;2022-09-17T16:36:07;8.18;;;1.10;;
66081;SDS011;52866;51.380;0.098;2022-09-17T16:38:34;9.23;;;1.30;;
66081;SDS011;52866;51.380;0.098;2022-09-17T16:41:05;9.63;;;1.33;;
66081;SDS011;52866;51.380;0.098;2022-09-17T16:43:32;6.45;;;0.98;;
66081;SDS011;52866;51.380;0.098;2022-09-17T16:46:01;8.05;;;1.15;;
66081;SDS011;52866;51.380;0.098;2022-09-17T16:48:28;8.00;;;1.40;;
66081;SDS011;52866;51.380;0.098;2022-09-17T16:50:56;9.82;;;1.42;;
66081;SDS011;52866;51.380;0.098;2022-09-17T16:53:23;8.67;;;1.20;;
66081;SDS011;52866;51.380;0.098;2022-09-17T16:55:50;7.40;;;1.33;;
66081;SDS011;52866;51.380;0.098;2022-09-17T16:58:17;8.02;;;1.23;;
66081;SDS011;52866;51.380;0.098;2022-09-17T17:00:44;4.60;;;1.08;;
66081;SDS011;52866;51.380;0.098;2022-09-17T17:03:12;4.97;;;0.88;;
66081;SDS011;52866;51.380;0.098;2022-09-17T17:05:39;6.43;;;0.80;;
66081;SDS011;52866;51.380;0.098;2022-09-17T17:08:06;6.72;;;1.13;;
66081;SDS011;52866;51.380;0.098;2022-09-17T17:10:35;4.63;;;0.95;;
66081;SDS011;52866;51.380;0.098;2022-09-17T17:13:03;8.88;;;1.10;;
66081;SDS011;52866;51.380;0.098;2022-09-17T17:15:30;9.05;;;1.00;;
66081;SDS011;52866;51.380;0.098;2022-09-17T17:17:57;3.97;;;1.00;;
66081;SDS011;52866;51.380;0.098;2022-09-17T17:20:24;9.07;;;1.20;;
66081;SDS011;52866;51.380;0.098;2022-09-17T17:22:51;9.32;;;1.20;;
66081;SDS011;52866;51.380;0.098;2022-09-17T17:25:18;5.95;;;1.00;;
66081;SDS011;52866;51.380;0.098;2022-09-17T17:27:45;6.88;;;1.13;;
66081;SDS011;52866;51.380;0.098;2022-09-17T17:30:12;4.30;;;1.00;;
66081;SDS011;52866;51.380;0.098;2022-09-17T17:32:43;5.63;;;1.23;;
66081;SDS011;52866;51.380;0.098;2022-09-17T17:35:11;6.20;;;1.40;;
66081;SDS011;52866;51.380;0.098;2022-09-17T17:37:38;7.90;;;1.73;;
66081;SDS011;52866;51.380;0.098;2022-09-17T17:40:06;7.78;;;1.55;;
66081;SDS011;52866;51.380;0.098;2022-09-17T17:42:36;6.73;;;1.77;;
66081;SDS011;52866;51.380;0.098;2022-09-17T17:45:09;6.53;;;1.65;;
66081;SDS011;52866;51.380;0.098;2022-09-17T17:47:36;9.32;;;1.98;;
66081;SDS011;52866;51.380;0.098;2022-09-17T17:50:03;6.35;;;1.55;;
66081;SDS011;52866;51.380;0.098;2022-09-17T17:52:30;6.45;;;1.50;;